createdAt,value
2018-08-04T00:01:10.148Z,91.80
2018-08-04T00:03:38.677Z,92.20
2018-08-04T00:06:07.171Z,92.70
2018-08-04T00:08:35.632Z,93.10
2018-08-04T00:11:04.041Z,93.60
2018-08-04T00:13:32.488Z,94.20
2018-08-04T00:16:01.148Z,94.80
2018-08-04T00:18:30.460Z,95.30
2018-08-04T00:20:58.904Z,95.80
2018-08-04T00:23:27.741Z,96.00
2018-08-04T00:25:56.311Z,96.60
2018-08-04T00:28:24.820Z,97.00
2018-08-04T00:30:53.209Z,97.40
2018-08-04T00:33:21.624Z,97.60
2018-08-04T00:35:50.956Z,98.00
2018-08-04T00:38:19.350Z,98.50
2018-08-04T00:40:47.952Z,98.90
2018-08-04T00:43:16.619Z,99.40
2018-08-04T00:45:45.056Z,99.70
2018-08-04T00:48:13.459Z,99.90
2018-08-04T00:50:41.946Z,99.90
2018-08-04T00:53:10.401Z,99.90
2018-08-04T00:55:38.777Z,99.90
2018-08-04T00:58:07.419Z,99.90
2018-08-04T01:00:35.826Z,99.90
2018-08-04T01:03:04.228Z,99.90
2018-08-04T01:05:32.635Z,99.90
2018-08-04T01:08:01.021Z,99.90
2018-08-04T01:10:29.475Z,99.90
2018-08-04T01:12:57.888Z,99.90
2018-08-04T01:15:26.276Z,99.90
2018-08-04T01:17:54.689Z,99.90
2018-08-04T01:20:23.099Z,99.90
2018-08-04T01:22:51.491Z,99.90
2018-08-04T01:25:19.917Z,99.90
2018-08-04T01:27:48.851Z,99.90
2018-08-04T01:30:17.427Z,99.90
2018-08-04T01:32:45.824Z,99.90
2018-08-04T01:35:14.200Z,99.90
2018-08-04T01:37:42.600Z,99.90
2018-08-04T01:40:11.040Z,99.90
2018-08-04T01:42:39.449Z,99.90
2018-08-04T01:45:08.215Z,99.90
2018-08-04T01:47:36.611Z,99.90
2018-08-04T01:50:05.255Z,99.90
2018-08-04T01:52:33.640Z,99.90
2018-08-04T01:55:02.044Z,99.90
2018-08-04T01:57:30.460Z,99.90
2018-08-04T01:59:58.848Z,99.90
2018-08-04T02:02:27.468Z,99.90
2018-08-04T02:04:55.876Z,99.90
2018-08-04T02:07:24.294Z,99.90
2018-08-04T02:09:52.718Z,99.90
2018-08-04T02:12:21.113Z,99.90
2018-08-04T02:14:49.532Z,99.90
2018-08-04T02:17:17.928Z,99.90
2018-08-04T02:19:46.335Z,99.90
2018-08-04T02:22:14.756Z,99.90
2018-08-04T02:24:43.208Z,99.90
2018-08-04T02:27:11.640Z,99.90
2018-08-04T02:29:40.013Z,99.90
2018-08-04T02:32:08.436Z,99.90
2018-08-04T02:34:36.887Z,99.90
2018-08-04T02:37:05.553Z,99.90
2018-08-04T02:39:33.948Z,99.90
2018-08-04T02:42:02.427Z,99.90
2018-08-04T02:44:30.834Z,99.90
2018-08-04T02:46:59.241Z,99.90
2018-08-04T02:49:27.620Z,99.90
2018-08-04T02:51:56.033Z,99.90
2018-08-04T02:54:24.413Z,99.90
2018-08-04T02:56:52.853Z,99.90
2018-08-04T02:59:21.254Z,99.90
2018-08-04T03:01:49.758Z,99.90
2018-08-04T03:04:18.393Z,99.90
2018-08-04T03:06:46.793Z,99.90
2018-08-04T03:09:15.169Z,99.90
2018-08-04T03:11:43.584Z,99.90
2018-08-04T03:14:11.982Z,99.90
2018-08-04T03:16:40.568Z,99.90
2018-08-04T03:19:08.944Z,99.90
2018-08-04T03:21:37.357Z,99.90
2018-08-04T03:24:05.768Z,99.90
2018-08-04T03:26:34.159Z,99.90
2018-08-04T03:29:02.603Z,99.90
2018-08-04T03:31:30.999Z,99.90
2018-08-04T03:33:59.411Z,99.90
2018-08-04T03:36:27.856Z,99.90
2018-08-04T03:38:57.576Z,99.90
2018-08-04T03:41:26.302Z,99.90
2018-08-04T03:43:54.700Z,99.90
2018-08-04T03:46:23.127Z,99.90
2018-08-04T03:48:51.635Z,99.90
2018-08-04T03:51:20.081Z,99.90
2018-08-04T03:53:48.556Z,99.90
2018-08-04T03:56:17.184Z,99.90
2018-08-04T03:58:45.584Z,99.90
2018-08-04T04:01:14.004Z,99.90
2018-08-04T04:03:42.709Z,99.90
2018-08-04T04:06:11.092Z,99.90
2018-08-04T04:08:39.686Z,99.90
2018-08-04T04:11:08.114Z,99.90
2018-08-04T04:13:36.617Z,99.90
2018-08-04T04:16:05.052Z,99.90
2018-08-04T04:18:33.476Z,99.90
2018-08-04T04:21:01.925Z,99.90
2018-08-04T04:23:30.325Z,99.90
2018-08-04T04:25:58.738Z,99.90
2018-08-04T04:28:27.120Z,99.90
2018-08-04T04:30:55.508Z,99.90
2018-08-04T04:35:52.818Z,99.90
2018-08-04T04:38:21.223Z,99.90
2018-08-04T04:40:49.617Z,99.90
2018-08-04T04:43:18.049Z,99.90
2018-08-04T04:45:46.479Z,99.90
2018-08-04T04:48:15.121Z,99.90
2018-08-04T04:50:43.522Z,99.90
2018-08-04T04:53:11.930Z,99.90
2018-08-04T04:55:40.597Z,99.90
2018-08-04T04:58:09.037Z,99.90
2018-08-04T05:00:37.444Z,99.90
2018-08-04T05:03:05.851Z,99.90
2018-08-04T05:05:34.273Z,99.90
2018-08-04T05:08:02.688Z,99.90
2018-08-04T05:10:31.132Z,99.90
2018-08-04T05:12:59.756Z,99.90
2018-08-04T05:15:28.156Z,99.90
2018-08-04T05:17:56.545Z,99.90
2018-08-04T05:20:24.956Z,99.90
2018-08-04T05:22:53.367Z,99.90
2018-08-04T05:25:21.789Z,99.90
2018-08-04T05:27:50.207Z,99.90
2018-08-04T05:30:18.624Z,99.90
2018-08-04T05:32:47.043Z,99.90
2018-08-04T05:35:15.492Z,99.90
2018-08-04T05:37:43.887Z,99.90
2018-08-04T05:40:12.293Z,99.90
2018-08-04T05:42:40.740Z,99.90
2018-08-04T05:45:09.868Z,99.90
2018-08-04T05:47:38.679Z,99.90
2018-08-04T05:50:07.682Z,99.90
2018-08-04T05:52:36.061Z,99.90
2018-08-04T05:55:05.048Z,99.90
2018-08-04T05:57:33.455Z,99.90
2018-08-04T06:00:01.860Z,99.90
2018-08-04T06:02:30.240Z,99.90
2018-08-04T06:04:58.678Z,99.90
2018-08-04T06:07:27.071Z,99.90
2018-08-04T06:09:55.995Z,99.90
2018-08-04T06:12:24.444Z,99.90
2018-08-04T06:14:52.860Z,99.90
2018-08-04T06:17:21.292Z,99.90
2018-08-04T06:19:49.692Z,99.90
2018-08-04T06:22:18.104Z,99.90
2018-08-04T06:24:46.495Z,99.90
2018-08-04T06:27:14.921Z,99.90
2018-08-04T06:29:43.312Z,99.90
2018-08-04T06:32:11.968Z,99.90
2018-08-04T06:34:40.404Z,99.90
2018-08-04T06:37:08.823Z,99.90
2018-08-04T06:42:05.558Z,99.90
2018-08-04T06:44:34.309Z,99.90
2018-08-04T06:47:02.781Z,99.90
2018-08-04T06:49:31.277Z,99.90
2018-08-04T06:51:59.672Z,99.90
2018-08-04T06:54:28.094Z,99.90
2018-08-04T06:56:56.515Z,99.90
2018-08-04T06:59:25.108Z,99.90
2018-08-04T07:01:53.536Z,99.90
2018-08-04T07:04:21.975Z,99.90
2018-08-04T07:06:50.672Z,99.90
2018-08-04T07:09:19.088Z,99.90
2018-08-04T07:11:47.479Z,99.90
2018-08-04T07:14:15.883Z,99.90
2018-08-04T07:16:44.347Z,99.90
2018-08-04T07:19:12.774Z,99.90
2018-08-04T07:21:42.126Z,99.90
2018-08-04T07:24:10.558Z,99.90
2018-08-04T07:26:38.966Z,99.90
2018-08-04T07:29:07.555Z,99.90
2018-08-04T07:31:36.116Z,99.90
2018-08-04T07:36:32.720Z,99.90
2018-08-04T07:39:01.329Z,99.90
2018-08-04T07:41:29.740Z,99.90
2018-08-04T07:43:58.145Z,99.90
2018-08-04T07:46:26.541Z,99.90
2018-08-04T07:48:55.164Z,99.90
2018-08-04T07:53:51.839Z,99.90
2018-08-04T07:56:20.249Z,99.90
2018-08-04T07:58:48.636Z,99.90
2018-08-04T08:01:17.099Z,99.90
2018-08-04T08:03:45.812Z,99.90
2018-08-04T08:06:14.489Z,99.90
2018-08-04T08:08:42.944Z,99.90
2018-08-04T08:11:11.566Z,99.90
2018-08-04T08:13:39.880Z,99.90
2018-08-04T08:16:09.001Z,99.90
2018-08-04T08:18:37.380Z,99.90
2018-08-04T08:21:06.025Z,99.90
2018-08-04T08:23:34.436Z,99.90
2018-08-04T08:26:12.657Z,99.90
2018-08-04T08:28:41.976Z,99.90
2018-08-04T08:31:10.503Z,99.90
2018-08-04T08:33:39.957Z,99.90
2018-08-04T08:36:08.930Z,99.90
2018-08-04T08:38:37.408Z,99.90
2018-08-04T08:41:05.880Z,99.90
2018-08-04T08:43:34.504Z,99.90
2018-08-04T08:46:02.932Z,99.90
2018-08-04T08:48:31.333Z,99.90
2018-08-04T08:50:59.788Z,99.90
2018-08-04T08:53:28.373Z,99.90
2018-08-04T08:55:56.660Z,99.90
2018-08-04T08:58:25.208Z,99.90
2018-08-04T09:03:22.030Z,99.90
2018-08-04T09:05:50.434Z,99.90
2018-08-04T09:08:18.983Z,99.90
2018-08-04T09:10:47.408Z,99.90
2018-08-04T09:15:44.006Z,99.70
2018-08-04T09:18:12.428Z,99.50
2018-08-04T09:20:40.828Z,99.30
2018-08-04T09:23:09.292Z,98.80
2018-08-04T09:25:37.667Z,98.20
2018-08-04T09:30:34.456Z,96.50
2018-08-04T09:33:02.892Z,95.10
2018-08-04T09:35:31.312Z,94.40
2018-08-04T09:37:59.764Z,92.40
2018-08-04T09:40:28.207Z,90.10
2018-08-04T09:42:56.633Z,85.80
2018-08-04T09:45:25.020Z,82.60
2018-08-04T09:47:53.477Z,80.80
2018-08-04T09:52:50.143Z,73.70
2018-08-04T09:55:18.615Z,73.90
2018-08-04T09:57:47.025Z,74.20
2018-08-04T10:00:22.105Z,71.50
2018-08-04T10:02:50.501Z,70.60
2018-08-04T10:05:18.995Z,69.20
2018-08-04T10:07:47.376Z,67.80
2018-08-04T10:10:15.816Z,68.60
2018-08-04T10:12:44.393Z,68.20
2018-08-04T10:15:12.796Z,67.20
2018-08-04T10:17:41.312Z,65.70
2018-08-04T10:20:11.085Z,67.10
2018-08-04T10:22:39.483Z,67.40
2018-08-04T10:27:36.547Z,67.00
2018-08-04T10:35:03.126Z,64.60
2018-08-04T10:37:31.604Z,63.90
2018-08-04T10:40:03.166Z,62.00
2018-08-04T10:42:31.713Z,61.00
2018-08-04T10:45:00.117Z,62.50
2018-08-04T10:47:28.580Z,61.70
2018-08-04T10:49:57.015Z,59.40
2018-08-04T10:52:25.424Z,58.30
2018-08-04T10:54:54.413Z,59.30
2018-08-04T10:57:22.821Z,60.70
2018-08-04T10:59:51.417Z,59.50
2018-08-04T11:02:19.897Z,58.90
2018-08-04T11:04:48.348Z,58.00
2018-08-04T11:07:16.781Z,59.20
2018-08-04T11:09:45.241Z,58.20
2018-08-04T11:12:13.696Z,58.70
2018-08-04T11:14:42.191Z,57.30
2018-08-04T11:17:10.656Z,56.80
2018-08-04T11:19:39.089Z,55.70
2018-08-04T11:22:07.484Z,54.70
2018-08-04T11:24:36.078Z,53.80
2018-08-04T11:27:04.624Z,54.20
2018-08-04T11:29:33.039Z,53.80
2018-08-04T11:32:01.459Z,53.80
2018-08-04T11:34:29.864Z,53.80
2018-08-04T11:36:58.465Z,53.90
2018-08-04T11:39:26.881Z,54.00
2018-08-04T11:41:55.257Z,54.60
2018-08-04T11:44:23.690Z,53.80
2018-08-04T11:46:52.096Z,52.60
2018-08-04T11:49:20.529Z,54.60
2018-08-04T11:51:48.957Z,54.50
2018-08-04T11:54:17.397Z,54.70
2018-08-04T11:56:45.857Z,54.70
2018-08-04T11:59:14.268Z,53.60
2018-08-04T12:01:42.933Z,55.50
2018-08-04T12:04:11.355Z,55.00
2018-08-04T12:06:39.778Z,57.10
2018-08-04T12:09:10.856Z,56.50
2018-08-04T12:11:39.493Z,55.60
2018-08-04T12:14:08.717Z,54.90
2018-08-04T12:16:37.174Z,55.50
2018-08-04T12:19:06.023Z,56.00
2018-08-04T12:21:34.465Z,55.80
2018-08-04T12:24:03.286Z,55.80
2018-08-04T12:26:31.697Z,55.60
2018-08-04T12:29:00.116Z,55.20
2018-08-04T12:31:28.572Z,54.90
2018-08-04T12:36:25.089Z,54.30
2018-08-04T12:38:53.493Z,55.40
2018-08-04T12:41:21.897Z,57.10
2018-08-04T12:43:50.805Z,57.00
2018-08-04T12:46:19.241Z,55.80
2018-08-04T12:48:47.978Z,55.90
2018-08-04T12:51:16.381Z,55.60
2018-08-04T12:53:44.792Z,55.50
2018-08-04T12:56:13.228Z,54.70
2018-08-04T12:58:41.612Z,54.80
2018-08-04T13:01:10.054Z,56.30
2018-08-04T13:03:38.445Z,56.30
2018-08-04T13:06:06.873Z,57.70
2018-08-04T13:08:35.338Z,58.40
2018-08-04T13:13:31.977Z,57.50
2018-08-04T13:16:00.400Z,58.60
2018-08-04T13:18:28.920Z,59.60
2018-08-04T13:20:58.106Z,59.20
2018-08-04T13:23:26.560Z,59.80
2018-08-04T13:25:54.952Z,60.50
2018-08-04T13:28:23.440Z,61.10
2018-08-04T13:30:52.452Z,62.00
2018-08-04T13:33:21.195Z,63.10
2018-08-04T13:35:49.661Z,63.00
2018-08-04T13:38:18.061Z,63.20
2018-08-04T13:40:46.476Z,63.80
2018-08-04T13:43:15.268Z,63.80
2018-08-04T13:45:43.671Z,63.00
2018-08-04T13:48:12.084Z,64.40
2018-08-04T13:50:40.603Z,64.20
2018-08-04T13:53:09.069Z,65.30
2018-08-04T13:55:37.496Z,65.90
2018-08-04T13:58:06.224Z,65.80
2018-08-04T14:00:34.656Z,65.60
2018-08-04T14:03:03.112Z,65.90
2018-08-04T14:05:31.564Z,65.30
2018-08-04T14:08:00.098Z,66.30
2018-08-04T14:10:30.174Z,64.70
2018-08-04T14:12:58.580Z,64.20
2018-08-04T14:15:27.099Z,65.50
2018-08-04T14:17:55.532Z,64.50
2018-08-04T14:22:52.144Z,63.40
2018-08-04T14:25:20.562Z,62.70
2018-08-04T14:27:48.985Z,63.60
2018-08-04T14:30:17.625Z,63.80
2018-08-04T14:35:14.116Z,63.70
2018-08-04T14:37:42.528Z,64.50
2018-08-04T14:40:10.933Z,65.10
2018-08-04T14:42:39.397Z,64.50
2018-08-04T14:45:07.822Z,64.60
2018-08-04T14:47:36.200Z,63.90
2018-08-04T14:50:04.809Z,63.70
2018-08-04T14:52:33.415Z,64.00
2018-08-04T14:55:02.131Z,64.70
2018-08-04T14:57:30.504Z,64.30
2018-08-04T14:59:58.940Z,64.80
2018-08-04T15:02:27.640Z,65.10
2018-08-04T15:04:56.113Z,65.80
2018-08-04T15:07:24.529Z,66.40
2018-08-04T15:09:53.076Z,67.10
2018-08-04T15:12:21.512Z,67.40
2018-08-04T15:14:49.943Z,67.00
2018-08-04T15:17:18.367Z,66.80
2018-08-04T15:19:47.089Z,65.70
2018-08-04T15:22:15.482Z,65.80
2018-08-04T15:24:43.893Z,66.40
2018-08-04T15:27:12.312Z,66.50
2018-08-04T15:29:40.704Z,65.60
2018-08-04T15:32:09.316Z,67.00
2018-08-04T15:34:37.689Z,67.80
2018-08-04T15:37:06.149Z,67.70
2018-08-04T15:39:34.682Z,67.60
2018-08-04T15:42:03.097Z,66.90
2018-08-04T15:44:31.504Z,67.10
2018-08-04T15:47:00.256Z,65.80
2018-08-04T15:49:28.751Z,65.40
2018-08-04T15:51:57.161Z,65.40
2018-08-04T15:54:25.596Z,65.20
2018-08-04T15:56:54.048Z,66.30
2018-08-04T15:59:22.472Z,67.40
2018-08-04T16:01:50.878Z,67.50
2018-08-04T16:04:19.333Z,67.60
2018-08-04T16:06:47.748Z,67.30
2018-08-04T16:09:16.138Z,67.50
2018-08-04T16:11:44.556Z,67.20
2018-08-04T16:14:13.024Z,67.70
2018-08-04T16:16:41.509Z,68.30
2018-08-04T16:19:09.901Z,69.10
2018-08-04T16:21:38.337Z,69.30
2018-08-04T16:24:06.876Z,69.60
2018-08-04T16:26:35.340Z,70.50
2018-08-04T16:29:04.044Z,70.90
2018-08-04T16:31:32.444Z,70.80
2018-08-04T16:36:28.938Z,71.90
2018-08-04T16:38:57.335Z,72.30
2018-08-04T16:41:25.789Z,72.50
2018-08-04T16:43:54.176Z,73.00
2018-08-04T16:46:22.596Z,73.70
2018-08-04T16:48:51.058Z,74.20
2018-08-04T16:51:19.482Z,74.70
2018-08-04T16:53:48.148Z,75.10
2018-08-04T16:58:44.626Z,76.40
2018-08-04T17:01:13.060Z,76.30
2018-08-04T17:03:41.532Z,76.80
2018-08-04T17:06:09.977Z,77.60
2018-08-04T17:08:38.392Z,78.50
2018-08-04T17:11:06.848Z,80.10
2018-08-04T17:13:35.339Z,81.10
2018-08-04T17:16:03.759Z,81.90
2018-08-04T17:21:00.536Z,83.50
2018-08-04T17:23:28.887Z,84.40
2018-08-04T17:25:57.341Z,84.40
2018-08-04T17:28:25.729Z,85.00
2018-08-04T17:30:54.148Z,85.60
2018-08-04T17:33:22.654Z,86.30
2018-08-04T17:35:51.058Z,86.90
2018-08-04T17:38:19.591Z,87.60
2018-08-04T17:40:48.065Z,88.00
2018-08-04T17:43:16.508Z,88.80
2018-08-04T17:45:44.933Z,89.70
2018-08-04T17:48:13.381Z,89.80
2018-08-04T17:50:42.104Z,90.00
2018-08-04T17:53:10.585Z,90.30
2018-08-04T17:55:38.995Z,90.60
2018-08-04T17:58:07.440Z,90.90
2018-08-04T18:00:35.931Z,91.20
2018-08-04T18:03:04.438Z,91.60
2018-08-04T18:05:32.896Z,91.80
2018-08-04T18:08:01.481Z,92.10
2018-08-04T18:10:29.893Z,92.20
2018-08-04T18:12:58.742Z,92.50
2018-08-04T18:15:27.163Z,92.80
2018-08-04T18:17:55.583Z,93.00
2018-08-04T18:20:24.191Z,93.40
2018-08-04T18:22:52.604Z,93.80
2018-08-04T18:25:21.039Z,94.20
2018-08-04T18:27:49.482Z,94.50
2018-08-04T18:30:17.999Z,95.00
2018-08-04T18:32:46.453Z,95.50
2018-08-04T18:35:14.897Z,96.00
2018-08-04T18:37:43.518Z,96.70
2018-08-04T18:40:11.877Z,98.00
2018-08-04T18:42:40.345Z,98.60
2018-08-04T18:45:08.883Z,99.80
2018-08-04T18:47:37.285Z,99.90
2018-08-04T18:50:05.760Z,99.90
2018-08-04T18:52:34.212Z,99.90
2018-08-04T18:55:02.654Z,99.90
2018-08-04T18:57:31.276Z,99.90
2018-08-04T18:59:59.672Z,99.90
2018-08-04T19:02:28.189Z,99.90
2018-08-04T19:04:56.614Z,99.90
2018-08-04T19:07:25.452Z,99.90
2018-08-04T19:09:53.933Z,99.90
2018-08-04T19:12:22.355Z,99.90
2018-08-04T19:14:50.777Z,99.90
2018-08-04T19:17:19.214Z,99.90
2018-08-04T19:19:47.803Z,99.90
2018-08-04T19:22:16.400Z,99.90
2018-08-04T19:24:44.785Z,99.90
2018-08-04T19:27:13.339Z,99.90
2018-08-04T19:29:41.768Z,99.90
2018-08-04T19:32:10.465Z,99.90
2018-08-04T19:34:38.966Z,99.90
2018-08-04T19:37:07.416Z,99.90
2018-08-04T19:39:35.825Z,99.90
2018-08-04T19:42:04.251Z,99.90
2018-08-04T19:44:32.772Z,99.90
2018-08-04T19:47:01.524Z,99.90
2018-08-04T19:49:30.087Z,99.90
2018-08-04T19:51:58.636Z,99.90
2018-08-04T19:54:27.370Z,99.90
2018-08-04T19:56:56.529Z,99.90
2018-08-04T19:59:25.128Z,99.90
2018-08-04T20:01:53.559Z,99.90
2018-08-04T20:04:21.988Z,99.90
2018-08-04T20:06:50.425Z,99.90
2018-08-04T20:09:18.939Z,99.90
2018-08-04T20:11:47.414Z,99.90
2018-08-04T20:14:15.876Z,99.90
2018-08-04T20:16:44.368Z,99.90
2018-08-04T20:19:15.336Z,99.90
2018-08-04T20:21:44.111Z,99.90
2018-08-04T20:24:12.545Z,99.90
2018-08-04T20:26:40.999Z,99.90
2018-08-04T20:29:09.806Z,99.90
2018-08-04T20:31:39.260Z,99.90
2018-08-04T20:34:08.005Z,99.90
2018-08-04T20:36:36.616Z,99.90
2018-08-04T20:39:08.099Z,99.90
2018-08-04T20:41:36.677Z,99.90
2018-08-04T20:44:05.297Z,99.90
2018-08-04T20:46:33.960Z,99.90
2018-08-04T20:49:02.431Z,99.90
2018-08-04T20:51:31.037Z,99.90
2018-08-04T20:53:59.597Z,99.90
2018-08-04T20:56:28.072Z,99.90
2018-08-04T20:58:56.536Z,99.90
2018-08-04T21:01:35.276Z,99.90
2018-08-04T21:04:03.832Z,99.90
2018-08-04T21:06:32.271Z,99.90
2018-08-04T21:09:00.798Z,99.90
2018-08-04T21:11:29.326Z,99.90
2018-08-04T21:13:57.847Z,99.90
2018-08-04T21:16:26.273Z,99.90
2018-08-04T21:18:54.846Z,99.90
2018-08-04T21:21:23.247Z,99.90
2018-08-04T21:23:51.679Z,99.90
2018-08-04T21:26:20.251Z,99.90
2018-08-04T21:28:48.790Z,99.90
2018-08-04T21:31:17.256Z,99.90
2018-08-04T21:33:45.774Z,99.90
2018-08-04T21:36:14.148Z,99.90
2018-08-04T21:38:42.680Z,99.90
2018-08-04T21:41:11.100Z,99.90
2018-08-04T21:43:39.578Z,99.90
2018-08-04T21:46:07.980Z,99.90
2018-08-04T21:48:36.526Z,99.90
2018-08-04T21:51:04.972Z,99.90
2018-08-04T21:53:33.383Z,99.90
2018-08-04T21:56:01.858Z,99.90
2018-08-04T21:58:30.505Z,99.90
2018-08-04T22:01:04.319Z,99.90
2018-08-04T22:03:32.861Z,99.90
2018-08-04T22:06:01.292Z,99.90
2018-08-04T22:08:41.225Z,99.90
2018-08-04T22:11:09.668Z,99.90
2018-08-04T22:13:38.118Z,99.90
2018-08-04T22:16:06.583Z,99.90
2018-08-04T22:18:34.973Z,99.90
2018-08-04T22:21:03.520Z,99.90
2018-08-04T22:23:31.999Z,99.90
2018-08-04T22:26:00.527Z,99.90
2018-08-04T22:28:28.948Z,99.90
2018-08-04T22:30:57.372Z,99.90
2018-08-04T22:33:25.828Z,99.90
2018-08-04T22:35:54.372Z,99.90
2018-08-04T22:38:22.828Z,99.90
2018-08-04T22:40:51.247Z,99.90
2018-08-04T22:43:19.686Z,99.90
2018-08-04T22:46:08.493Z,99.90
2018-08-04T22:48:37.148Z,99.90
2018-08-04T22:51:05.794Z,99.90
2018-08-04T22:53:34.669Z,99.90
2018-08-04T22:56:03.370Z,99.90
2018-08-04T22:58:31.827Z,99.90
2018-08-04T23:01:00.231Z,99.90
2018-08-04T23:03:28.727Z,99.90
2018-08-04T23:05:57.158Z,99.90
2018-08-04T23:08:25.583Z,99.90
2018-08-04T23:10:53.987Z,99.90
2018-08-04T23:13:22.684Z,99.90
2018-08-04T23:15:51.112Z,99.90
2018-08-04T23:18:19.592Z,99.90
2018-08-04T23:20:48.138Z,99.90
2018-08-04T23:23:16.722Z,99.90
2018-08-04T23:25:45.172Z,99.90
2018-08-04T23:28:13.560Z,99.90
2018-08-04T23:30:42.004Z,99.90
2018-08-04T23:33:10.434Z,99.90
2018-08-04T23:35:38.956Z,99.90
2018-08-04T23:38:07.465Z,99.90
2018-08-04T23:40:35.898Z,99.90
2018-08-04T23:43:04.567Z,99.90
2018-08-04T23:45:33.169Z,99.90
2018-08-04T23:48:01.687Z,99.90
2018-08-04T23:50:30.113Z,99.90
2018-08-04T23:52:58.586Z,99.90
2018-08-04T23:55:27.038Z,99.90
2018-08-04T23:57:55.456Z,99.90
